createdAt,value
2023-05-14T00:01:32.105Z,4.22
2023-05-14T00:06:33.936Z,3.72
2023-05-14T00:11:35.617Z,4.25
2023-05-14T00:16:37.504Z,4.38
2023-05-14T00:21:39.357Z,4.32
2023-05-14T00:26:41.111Z,3.60
2023-05-14T00:31:42.974Z,3.97
2023-05-14T00:36:44.828Z,4.15
2023-05-14T00:41:46.631Z,3.70
2023-05-14T00:46:48.933Z,3.88
2023-05-14T00:51:51.288Z,4.03
2023-05-14T00:56:56.186Z,4.10
2023-05-14T01:01:58.088Z,3.33
2023-05-14T01:07:11.025Z,3.95
2023-05-14T01:12:33.560Z,3.60
2023-05-14T01:17:43.226Z,4.38
2023-05-14T01:22:45.455Z,3.63
2023-05-14T01:28:31.904Z,4.32
2023-05-14T01:33:35.281Z,3.95
2023-05-14T01:38:37.749Z,3.78
2023-05-14T01:43:39.580Z,4.13
2023-05-14T01:48:41.487Z,4.10
2023-05-14T01:53:43.671Z,3.97
2023-05-14T01:58:45.788Z,3.83
2023-05-14T02:03:48.065Z,3.40
2023-05-14T02:08:49.880Z,3.97
2023-05-14T02:13:52.369Z,3.90
2023-05-14T02:18:54.817Z,4.30
2023-05-14T02:23:56.704Z,4.60
2023-05-14T02:28:58.420Z,3.92
2023-05-14T02:34:04.879Z,4.10
2023-05-14T02:39:06.738Z,4.10
2023-05-14T02:44:08.468Z,4.15
2023-05-14T02:49:10.183Z,4.03
2023-05-14T02:54:12.254Z,4.18
2023-05-14T02:59:14.027Z,3.88
2023-05-14T03:04:16.362Z,4.50
2023-05-14T03:09:18.137Z,4.20
2023-05-14T03:14:19.876Z,4.25
2023-05-14T03:19:21.695Z,4.38
2023-05-14T03:24:23.542Z,4.03
2023-05-14T03:29:25.278Z,4.47
2023-05-14T03:34:27.043Z,4.13
2023-05-14T03:39:29.279Z,4.32
2023-05-14T03:44:31.688Z,4.25
2023-05-14T03:49:33.469Z,4.25
2023-05-14T03:54:35.817Z,4.22
2023-05-14T03:59:37.542Z,4.00
2023-05-14T04:04:39.281Z,4.00
2023-05-14T04:09:41.032Z,3.83
2023-05-14T04:14:42.759Z,4.43
2023-05-14T04:19:44.540Z,3.50
2023-05-14T04:24:46.282Z,4.40
2023-05-14T04:29:49.324Z,4.18
2023-05-14T04:34:51.457Z,3.38
2023-05-14T04:39:53.191Z,4.22
2023-05-14T04:44:54.961Z,3.50
2023-05-14T04:49:57.855Z,4.10
2023-05-14T04:54:59.627Z,4.20
2023-05-14T05:00:01.419Z,4.68
2023-05-14T05:05:04.173Z,3.85
2023-05-14T05:10:06.894Z,4.15
2023-05-14T05:15:09.664Z,4.15
2023-05-14T05:20:12.050Z,3.00
2023-05-14T05:25:13.736Z,4.53
2023-05-14T05:30:15.471Z,3.63
2023-05-14T05:35:17.259Z,3.97
2023-05-14T05:40:19.149Z,3.75
2023-05-14T05:45:20.907Z,3.88
2023-05-14T05:50:22.868Z,3.15
2023-05-14T05:55:25.502Z,3.80
2023-05-14T06:00:27.411Z,3.05
2023-05-14T06:05:29.308Z,3.50
2023-05-14T06:10:31.569Z,3.97
2023-05-14T06:15:33.378Z,3.63
2023-05-14T06:20:35.078Z,4.45
2023-05-14T06:25:36.829Z,3.90
2023-05-14T06:30:38.570Z,4.20
2023-05-14T06:35:40.430Z,3.67
2023-05-14T06:40:42.154Z,3.13
2023-05-14T06:45:43.924Z,3.13
2023-05-14T06:50:46.483Z,2.70
2023-05-14T06:55:48.774Z,2.50
2023-05-14T07:00:50.500Z,3.05
2023-05-14T07:05:52.253Z,2.60
2023-05-14T07:10:53.987Z,2.65
2023-05-14T07:15:56.534Z,2.60
2023-05-14T07:20:58.339Z,2.75
2023-05-14T07:26:00.142Z,1.15
2023-05-14T07:31:02.351Z,2.60
2023-05-14T07:36:05.085Z,2.42
2023-05-14T07:41:06.890Z,2.50
2023-05-14T07:46:08.614Z,2.58
2023-05-14T07:51:10.523Z,2.95
2023-05-14T07:56:12.264Z,3.20
2023-05-14T08:01:14.261Z,2.80
2023-05-14T08:06:16.355Z,2.15
2023-05-14T08:11:18.196Z,2.85
2023-05-14T08:16:20.121Z,2.30
2023-05-14T08:21:22.423Z,2.83
2023-05-14T08:26:24.185Z,2.53
2023-05-14T08:31:26.808Z,2.22
2023-05-14T08:36:28.572Z,2.17
2023-05-14T08:41:30.394Z,2.55
2023-05-14T08:46:33.153Z,2.60
2023-05-14T08:51:35.905Z,2.63
2023-05-14T08:56:38.976Z,2.58
2023-05-14T09:01:48.746Z,2.33
2023-05-14T09:06:55.001Z,2.47
2023-05-14T09:11:56.792Z,2.50
2023-05-14T09:16:59.306Z,2.00
2023-05-14T09:22:01.430Z,2.58
2023-05-14T09:27:04.328Z,2.67
2023-05-14T09:32:07.555Z,2.20
2023-05-14T09:37:09.943Z,2.55
2023-05-14T09:42:11.757Z,2.05
2023-05-14T09:47:15.744Z,2.22
2023-05-14T09:52:19.387Z,2.05
2023-05-14T09:57:21.341Z,2.70
2023-05-14T10:02:30.245Z,1.60
2023-05-14T10:07:38.587Z,2.25
2023-05-14T10:12:40.912Z,1.90
2023-05-14T10:17:48.339Z,1.50
2023-05-14T10:22:51.164Z,1.58
2023-05-14T10:27:58.151Z,1.00
2023-05-14T10:33:11.738Z,0.90
2023-05-14T10:38:15.313Z,2.85
2023-05-14T10:43:28.809Z,1.88
2023-05-14T10:48:31.133Z,2.40
2023-05-14T10:53:38.968Z,1.85
2023-05-14T10:58:44.705Z,1.65
2023-05-14T11:03:47.187Z,1.95
2023-05-14T11:08:51.349Z,2.50
2023-05-14T11:13:54.026Z,1.88
2023-05-14T11:19:03.618Z,2.15
2023-05-14T11:24:07.469Z,1.35
2023-05-14T11:29:10.526Z,2.45
2023-05-14T11:34:12.279Z,0.98
2023-05-14T11:39:21.056Z,2.50
2023-05-14T11:44:22.933Z,1.70
2023-05-14T11:49:25.927Z,2.38
2023-05-14T11:54:28.364Z,2.40
2023-05-14T11:59:32.672Z,1.73
2023-05-14T12:04:34.552Z,1.13
2023-05-14T12:09:39.265Z,2.50
2023-05-14T12:14:45.693Z,2.42
2023-05-14T12:19:53.905Z,1.58
2023-05-14T12:24:57.722Z,2.53
2023-05-14T12:30:13.051Z,2.65
2023-05-14T12:40:23.684Z,2.08
2023-05-14T12:45:25.880Z,1.83
2023-05-14T12:50:27.759Z,1.90
2023-05-14T12:55:29.586Z,1.52
2023-05-14T13:00:31.340Z,2.13
2023-05-14T13:05:33.362Z,2.50
2023-05-14T13:10:35.474Z,2.30
2023-05-14T13:15:37.758Z,2.00
2023-05-14T13:20:40.724Z,2.80
2023-05-14T13:25:44.225Z,2.85
2023-05-14T13:31:05.141Z,2.60
2023-05-14T13:36:08.147Z,2.40
2023-05-14T13:41:09.928Z,1.60
2023-05-14T13:46:11.817Z,1.73
2023-05-14T13:51:13.601Z,2.40
2023-05-14T13:56:15.388Z,2.78
2023-05-14T14:01:17.153Z,2.70
2023-05-14T14:06:18.894Z,3.00
2023-05-14T14:11:20.780Z,2.85
2023-05-14T14:16:22.570Z,2.85
2023-05-14T14:21:24.336Z,2.63
2023-05-14T14:26:27.923Z,3.22
2023-05-14T14:31:29.871Z,2.10
2023-05-14T14:36:31.808Z,3.15
2023-05-14T14:41:33.600Z,2.78
2023-05-14T14:46:35.436Z,3.45
2023-05-14T14:51:37.234Z,3.17
2023-05-14T14:56:39.338Z,2.80
2023-05-14T15:01:41.185Z,2.05
2023-05-14T15:06:43.411Z,2.60
2023-05-14T15:11:48.320Z,4.25
2023-05-14T15:16:51.168Z,3.20
2023-05-14T15:21:53.160Z,3.35
2023-05-14T15:26:55.940Z,3.53
2023-05-14T15:31:57.941Z,3.50
2023-05-14T15:36:59.671Z,2.15
2023-05-14T15:42:01.408Z,3.97
2023-05-14T15:47:03.164Z,4.07
2023-05-14T15:52:05.097Z,3.80
2023-05-14T15:57:07.082Z,3.03
2023-05-14T16:02:09.265Z,2.47
2023-05-14T16:07:17.092Z,3.22
2023-05-14T16:12:32.841Z,2.55
2023-05-14T16:17:35.147Z,2.60
2023-05-14T16:22:36.948Z,2.38
2023-05-14T16:27:38.715Z,2.55
2023-05-14T16:32:42.054Z,3.03
2023-05-14T16:37:43.980Z,3.40
2023-05-14T16:42:47.845Z,3.53
2023-05-14T16:47:51.329Z,3.35
2023-05-14T16:52:53.166Z,3.17
2023-05-14T16:57:54.891Z,2.88
2023-05-14T17:02:56.806Z,3.13
2023-05-14T17:07:58.528Z,2.53
2023-05-14T17:13:00.425Z,2.28
2023-05-14T17:18:04.526Z,2.15
2023-05-14T17:23:06.331Z,2.15
2023-05-14T17:28:08.071Z,2.75
2023-05-14T17:33:09.916Z,2.95
2023-05-14T17:38:12.126Z,2.90
2023-05-14T17:43:14.056Z,2.10
2023-05-14T17:48:15.811Z,2.00
2023-05-14T17:53:17.666Z,1.90
2023-05-14T17:58:19.508Z,1.90
2023-05-14T18:03:21.398Z,2.08
2023-05-14T18:08:23.221Z,2.20
2023-05-14T18:13:25.011Z,1.85
2023-05-14T18:18:26.950Z,1.88
2023-05-14T18:23:31.018Z,1.95
2023-05-14T18:28:32.834Z,1.85
2023-05-14T18:33:34.988Z,1.63
2023-05-14T18:38:36.823Z,2.45
2023-05-14T18:43:38.546Z,2.08
2023-05-14T18:48:40.428Z,2.13
2023-05-14T18:53:42.182Z,2.60
2023-05-14T18:58:43.964Z,2.00
2023-05-14T19:03:45.859Z,2.20
2023-05-14T19:08:47.694Z,2.28
2023-05-14T19:13:49.653Z,1.90
2023-05-14T19:18:51.437Z,1.90
2023-05-14T19:23:53.244Z,2.00
2023-05-14T19:28:58.584Z,1.90
2023-05-14T19:34:00.385Z,2.42
2023-05-14T19:39:03.828Z,2.78
2023-05-14T19:44:05.672Z,2.17
2023-05-14T19:49:07.476Z,2.50
2023-05-14T19:54:10.034Z,2.05
2023-05-14T19:59:11.799Z,2.00
2023-05-14T20:04:14.173Z,1.75
2023-05-14T20:09:15.877Z,2.28
2023-05-14T20:14:18.056Z,2.00
2023-05-14T20:24:50.149Z,2.25
2023-05-14T20:29:51.873Z,2.30
2023-05-14T20:34:53.588Z,4.00
2023-05-14T20:39:55.593Z,2.90
2023-05-14T20:44:57.508Z,2.70
2023-05-14T20:49:59.339Z,2.58
2023-05-14T20:55:01.967Z,2.50
2023-05-14T21:00:08.137Z,2.05
2023-05-14T21:05:09.872Z,1.88
2023-05-14T21:10:11.626Z,2.00
2023-05-14T21:15:13.442Z,1.38
2023-05-14T21:20:15.668Z,2.70
2023-05-14T21:25:17.576Z,2.90
2023-05-14T21:30:19.376Z,3.50
2023-05-14T21:35:21.263Z,3.67
2023-05-14T21:40:22.942Z,3.53
2023-05-14T21:45:25.061Z,2.85
2023-05-14T21:50:27.150Z,2.95
2023-05-14T21:55:29.146Z,3.60
2023-05-14T22:00:31.808Z,2.95
2023-05-14T22:05:33.756Z,2.97
2023-05-14T22:10:35.529Z,3.20
2023-05-14T22:15:38.072Z,3.53
2023-05-14T22:20:40.133Z,3.15
2023-05-14T22:25:42.179Z,3.60
2023-05-14T22:30:43.879Z,3.50
2023-05-14T22:35:45.652Z,3.50
2023-05-14T22:40:47.484Z,3.38
2023-05-14T22:45:49.407Z,3.08
2023-05-14T22:50:51.865Z,2.40
2023-05-14T22:55:53.889Z,3.63
2023-05-14T23:00:55.708Z,3.75
2023-05-14T23:05:57.474Z,0.88
2023-05-14T23:10:59.184Z,3.67
2023-05-14T23:16:01.154Z,4.60
2023-05-14T23:21:02.927Z,3.42
2023-05-14T23:26:04.985Z,3.72
2023-05-14T23:31:06.736Z,4.00
2023-05-14T23:36:08.854Z,3.72
2023-05-14T23:41:10.617Z,3.83
2023-05-14T23:46:12.361Z,3.20
2023-05-14T23:51:14.106Z,3.83
2023-05-14T23:56:16.170Z,3.33
